KRBG/RBG METAR and TAF weather

Enter ICAO airport designator
Station Type Date Time Source
KRBG METAR 2021/04/14 20:53 UTC NOAA

KRBG 142053Z AUTO 33009G14KT 10SM CLR 18/M11 A3001 RMK AO2 SLP162 T01831111 58021


Station Type Date Time Source
KRBG Decoded METAR 2021/04/14 20:53 UTC NOAA

ROSEBURG REGIONAL AIRPORT, OR, United States (KRBG) 43-14N 123-21W 154M
Apr 14, 2021 - 04:53 PM EDT / 2021.04.14 2053 UTC
Wind: from the NNW (330 degrees) at 10 MPH (9 KT) gusting to 16 MPH (14 KT):0
Visibility: 10 mile(s):0
Sky conditions: clear
Temperature: 64.9 F (18.3 C)
Dew Point: 12.0 F (-11.1 C)
Relative Humidity: 12%
Pressure (altimeter): 30.01 in. Hg (1016 hPa)
Pressure tendency: 0.06 inches (2.1 hPa) lower than three hours ago
ob: KRBG 142053Z AUTO 33009G14KT 10SM CLR 18/M11 A3001 RMK AO2 SLP162 T01831111 58021
cycle: 21

Station Type Date Time Source
KRBG TAF 2021/04/14 18:22 UTC NOAA

TAF KRBG 141720Z 1418/1518 VRB03KT P6SM SKC
FM142000 36012G18KT P6SM SKC
FM150400 36004KT P6SM SKC

Example: see airport list